Time;durP1;ratioP1;P1;durP2;ratioP2;P2;SDS_P1;SDS_P2;PMS_P1;PMS_P2;Temp;Humidity;BMP_temperature;BMP_pressure;BME280_temperature;BME280_humidity;BME280_pressure;Samples;Min_cycle;Max_cycle;Signal;HPM_P1;HPM_P2
2021/07/19 00:02:03;;;;;;;7.13;5.00;;;19.00;99.90;;;;;;4977873;28;20195;-71
2021/07/19 00:04:41;;;;;;;11.00;4.90;;;18.90;99.90;;;;;;4971661;28;20192;-71
2021/07/19 00:07:07;;;;;;;6.20;5.33;;;19.00;99.90;;;;;;4958959;29;20209;-71
2021/07/19 00:09:33;;;;;;;6.53;4.93;;;18.90;99.90;;;;;;4957351;29;20429;-71
2021/07/19 00:12:00;;;;;;;6.47;5.13;;;18.90;99.90;;;;;;4958287;28;20252;-71
2021/07/19 00:14:26;;;;;;;12.30;7.17;;;18.90;99.90;;;;;;4958467;29;20412;-72
2021/07/19 00:16:53;;;;;;;5.20;4.63;;;18.80;99.90;;;;;;4941447;29;20797;-71
2021/07/19 00:19:19;;;;;;;5.43;4.93;;;18.90;99.90;;;;;;4958428;29;20420;-72
2021/07/19 00:21:44;;;;;;;8.83;5.37;;;19.00;99.90;;;;;;4958586;29;20782;-71
2021/07/19 00:24:10;;;;;;;8.63;5.77;;;19.00;99.90;;;;;;4957273;29;20253;-70
2021/07/19 00:26:36;;;;;;;6.17;5.57;;;19.00;99.90;;;;;;4958136;29;20503;-72
2021/07/19 00:29:02;;;;;;;7.50;5.30;;;19.10;99.90;;;;;;4958785;29;20181;-71
2021/07/19 00:31:31;;;;;;;7.77;5.43;;;19.10;99.90;;;;;;4958660;28;20205;-70
2021/07/19 00:34:01;;;;;;;9.30;6.00;;;19.00;99.90;;;;;;4958460;28;20436;-72
2021/07/19 00:36:27;;;;;;;8.20;5.37;;;18.90;99.90;;;;;;4941104;29;20963;-72
2021/07/19 00:38:53;;;;;;;7.80;5.80;;;18.90;99.90;;;;;;4957869;29;20405;-72
2021/07/19 00:41:20;;;;;;;6.30;5.70;;;18.70;99.90;;;;;;4957922;28;20496;-72
2021/07/19 00:43:45;;;;;;;9.10;6.40;;;18.70;99.90;;;;;;4958370;28;20428;-72
2021/07/19 00:46:11;;;;;;;6.60;5.13;;;18.70;99.90;;;;;;4957993;28;20468;-72
2021/07/19 00:48:37;;;;;;;7.10;5.40;;;18.70;99.90;;;;;;4958049;29;20553;-72
2021/07/19 00:51:04;;;;;;;5.90;5.27;;;18.80;99.90;;;;;;4957846;29;20292;-72
2021/07/19 00:53:29;;;;;;;7.13;5.50;;;18.60;99.90;;;;;;4958191;28;20200;-72
2021/07/19 00:55:55;;;;;;;7.93;5.60;;;18.50;99.90;;;;;;4957763;28;20421;-72
2021/07/19 00:58:24;;;;;;;6.20;5.47;;;18.20;99.90;;;;;;4956343;29;20185;-72
2021/07/19 01:00:53;;;;;;;6.53;5.93;;;18.00;99.90;;;;;;4957777;28;20432;-72
2021/07/19 01:03:19;;;;;;;8.40;5.60;;;17.90;99.90;;;;;;4957938;28;20522;-72
2021/07/19 01:05:45;;;;;;;7.63;5.30;;;17.80;99.90;;;;;;4957408;28;20433;-72
2021/07/19 01:08:11;;;;;;;8.73;5.27;;;18.00;99.90;;;;;;4957446;28;20416;-72
2021/07/19 01:10:37;;;;;;;6.10;4.90;;;18.10;99.90;;;;;;4957472;29;20180;-72
2021/07/19 01:13:04;;;;;;;8.10;4.97;;;18.20;99.90;;;;;;4957381;28;20213;-70
2021/07/19 01:15:31;;;;;;;5.07;4.57;;;18.20;99.90;;;;;;4956948;29;20401;-70
2021/07/19 01:17:57;;;;;;;8.20;4.30;;;18.20;99.90;;;;;;4957550;29;20386;-73
2021/07/19 01:20:39;;;;;;;8.25;5.40;;;18.30;99.90;;;;;;4956411;29;20412;-72
2021/07/19 01:23:39;;;;;;;7.97;4.90;;;18.20;99.90;;;;;;4957324;28;20536;-73
2021/07/19 01:26:27;;;;;;;8.40;5.10;;;18.20;99.90;;;;;;4957340;29;20716;-72
2021/07/19 01:28:54;;;;;;;6.27;4.90;;;18.10;99.90;;;;;;4957284;29;20896;-70
2021/07/19 01:31:26;;;;;;;5.70;5.10;;;18.20;99.90;;;;;;4956706;29;20457;-71
2021/07/19 01:33:58;;;;;;;4.97;4.37;;;18.30;99.90;;;;;;4957104;28;20907;-71
2021/07/19 01:36:31;;;;;;;8.23;4.97;;;18.40;99.90;;;;;;4957883;29;20432;-70
2021/07/19 01:38:59;;;;;;;11.40;5.23;;;18.40;99.90;;;;;;4962846;29;20389;-70
2021/07/19 01:41:26;;;;;;;6.93;4.90;;;18.40;99.90;;;;;;4969171;28;20501;-70
2021/07/19 01:43:53;;;;;;;7.87;5.10;;;18.20;99.90;;;;;;4949362;29;20461;-71
2021/07/19 01:46:20;;;;;;;8.57;4.57;;;18.30;99.90;;;;;;4956914;28;20838;-71
2021/07/19 01:48:46;;;;;;;7.00;5.10;;;18.20;99.90;;;;;;4957846;29;20445;-71
2021/07/19 01:51:12;;;;;;;7.97;5.63;;;18.20;99.90;;;;;;4956268;29;20472;-71
2021/07/19 01:53:41;;;;;;;6.67;5.23;;;18.10;99.90;;;;;;4956415;28;20437;-72
2021/07/19 01:56:06;;;;;;;8.05;5.55;;;18.20;99.90;;;;;;4955772;28;20419;-72
2021/07/19 01:58:32;;;;;;;5.70;5.20;;;18.20;99.90;;;;;;4956763;28;20173;-72
2021/07/19 02:00:59;;;;;;;7.50;5.80;;;18.20;99.90;;;;;;4956920;28;20228;-72
2021/07/19 02:03:25;;;;;;;7.28;5.78;;;18.10;99.90;;;;;;4955872;28;20885;-72
2021/07/19 02:05:54;;;;;;;6.30;5.70;;;18.00;99.90;;;;;;4956464;28;20189;-71
2021/07/19 02:08:21;;;;;;;8.17;5.20;;;17.90;99.90;;;;;;4956793;28;20181;-72
2021/07/19 02:10:48;;;;;;;6.20;5.30;;;17.80;99.90;;;;;;4956225;29;20445;-72
2021/07/19 02:13:15;;;;;;;7.23;5.40;;;17.90;99.90;;;;;;4956788;28;20944;-70
2021/07/19 02:15:42;;;;;;;9.13;5.87;;;17.90;99.90;;;;;;4965473;29;20405;-72
2021/07/19 02:18:10;;;;;;;6.53;5.73;;;17.90;99.90;;;;;;4973588;28;20417;-72
2021/07/19 02:20:36;;;;;;;9.17;6.40;;;17.90;99.90;;;;;;4958815;29;20891;-71
2021/07/19 02:23:04;;;;;;;6.93;5.73;;;17.80;99.90;;;;;;4957835;28;20433;-72
2021/07/19 02:25:32;;;;;;;13.27;6.10;;;17.70;99.90;;;;;;4956711;29;20174;-71
2021/07/19 02:27:59;;;;;;;9.33;6.17;;;17.50;99.90;;;;;;4958126;29;20417;-71
2021/07/19 02:30:26;;;;;;;9.50;6.10;;;17.30;99.90;;;;;;4956404;29;20406;-71
2021/07/19 02:32:55;;;;;;;7.97;6.50;;;17.30;99.90;;;;;;4956570;28;20828;-71
2021/07/19 02:35:23;;;;;;;7.13;5.53;;;17.30;99.90;;;;;;4957134;29;20437;-71
2021/07/19 02:37:51;;;;;;;7.07;4.93;;;17.30;99.90;;;;;;4958165;29;20887;-72
2021/07/19 02:40:19;;;;;;;6.23;5.30;;;17.40;99.90;;;;;;4956252;28;20552;-72
2021/07/19 02:42:56;;;;;;;8.90;5.83;;;17.50;99.90;;;;;;4956141;28;20451;-71
2021/07/19 02:45:22;;;;;;;8.27;5.40;;;17.50;99.90;;;;;;4956372;29;20420;-72
2021/07/19 02:47:49;;;;;;;7.33;6.10;;;17.60;99.90;;;;;;4955798;29;20406;-72
2021/07/19 02:50:19;;;;;;;7.83;6.10;;;17.60;99.90;;;;;;4956037;29;20477;-72
2021/07/19 02:52:46;;;;;;;10.17;5.70;;;17.70;99.90;;;;;;4955457;28;20484;-71
2021/07/19 02:55:13;;;;;;;8.67;6.37;;;17.70;99.90;;;;;;4955702;29;20965;-71
2021/07/19 02:57:39;;;;;;;7.53;6.77;;;17.70;99.90;;;;;;4955790;29;20922;-72
2021/07/19 03:00:10;;;;;;;6.87;5.80;;;17.60;99.90;;;;;;4955511;29;20421;-72
2021/07/19 03:02:40;;;;;;;7.47;5.60;;;17.50;99.90;;;;;;4955622;28;20457;-72
2021/07/19 03:05:07;;;;;;;7.07;5.90;;;17.50;99.90;;;;;;4954651;28;20974;-72
2021/07/19 03:07:35;;;;;;;7.20;5.87;;;17.50;99.90;;;;;;4955655;29;20441;-72
2021/07/19 03:10:03;;;;;;;9.23;5.83;;;17.50;99.90;;;;;;4939063;28;20460;-70
2021/07/19 03:12:32;;;;;;;6.93;6.27;;;17.60;99.90;;;;;;4956013;28;20473;-71
2021/07/19 03:14:58;;;;;;;7.03;5.30;;;17.70;99.90;;;;;;4955627;29;20496;-70
2021/07/19 03:17:25;;;;;;;6.07;5.43;;;17.80;99.90;;;;;;4955405;29;20471;-70
2021/07/19 03:19:53;;;;;;;6.07;5.23;;;17.70;99.90;;;;;;4955989;29;20417;-70
2021/07/19 03:22:20;;;;;;;7.93;5.50;;;17.80;99.90;;;;;;4955353;28;20437;-72
2021/07/19 03:24:48;;;;;;;9.65;7.00;;;17.80;99.90;;;;;;4953808;28;20455;-71
2021/07/19 03:27:13;;;;;;;8.70;6.20;;;17.70;99.90;;;;;;4955460;28;20173;-71
2021/07/19 03:29:40;;;;;;;5.90;5.40;;;17.50;99.90;;;;;;4955535;29;20420;-71
2021/07/19 03:32:08;;;;;;;7.85;5.80;;;17.50;99.90;;;;;;4953962;28;20448;-71
2021/07/19 03:34:34;;;;;;;7.10;5.97;;;17.60;99.90;;;;;;4954301;28;20182;-71
2021/07/19 03:37:01;;;;;;;7.20;5.57;;;17.60;99.90;;;;;;4955205;28;20424;-72
2021/07/19 03:39:27;;;;;;;8.40;5.77;;;17.60;99.90;;;;;;4954766;29;20453;-72
2021/07/19 03:41:54;;;;;;;6.77;5.90;;;17.60;99.90;;;;;;4955347;28;20774;-72
2021/07/19 03:44:21;;;;;;;6.27;5.63;;;17.60;99.90;;;;;;4954806;29;20433;-71
2021/07/19 03:46:47;;;;;;;11.50;6.87;;;17.60;99.90;;;;;;4955859;29;20409;-71
2021/07/19 03:49:15;;;;;;;8.10;6.50;;;17.60;99.90;;;;;;4955386;29;20424;-71
2021/07/19 03:51:47;;;;;;;7.70;5.57;;;17.60;99.90;;;;;;4957712;28;20465;-71
2021/07/19 03:54:13;;;;;;;7.03;6.33;;;17.60;99.90;;;;;;4956825;28;20498;-71
2021/07/19 03:56:39;;;;;;;10.20;6.30;;;17.50;99.90;;;;;;4974702;28;20404;-71
2021/07/19 03:59:07;;;;;;;8.20;6.43;;;17.60;99.90;;;;;;4974922;28;20252;-71
2021/07/19 04:01:36;;;;;;;8.60;6.83;;;17.60;99.90;;;;;;4974482;28;20459;-71
2021/07/19 04:04:06;;;;;;;8.73;6.00;;;17.40;99.90;;;;;;4974509;28;20452;-72
2021/07/19 04:06:33;;;;;;;7.80;6.27;;;17.40;99.90;;;;;;4974155;28;20424;-71
2021/07/19 04:08:59;;;;;;;9.60;7.67;;;17.30;99.90;;;;;;4973214;28;20468;-71
2021/07/19 04:11:26;;;;;;;9.83;6.63;;;17.20;99.90;;;;;;4974430;28;20467;-72
2021/07/19 04:13:53;;;;;;;9.23;7.17;;;17.30;99.90;;;;;;4974437;28;20193;-71
2021/07/19 04:16:19;;;;;;;7.97;6.20;;;17.30;99.90;;;;;;4974405;28;20476;-71
2021/07/19 04:18:48;;;;;;;10.33;8.50;;;17.30;99.90;;;;;;4975786;28;20428;-71
2021/07/19 04:21:14;;;;;;;10.13;6.70;;;17.30;99.90;;;;;;4977363;28;20430;-71
2021/07/19 04:23:41;;;;;;;12.60;8.10;;;17.20;99.90;;;;;;4977878;28;20770;-71
2021/07/19 04:26:10;;;;;;;10.80;7.40;;;17.10;99.90;;;;;;4960348;28;20457;-72
2021/07/19 04:28:37;;;;;;;11.93;8.10;;;17.00;99.90;;;;;;4977930;28;20479;-71
2021/07/19 04:31:03;;;;;;;10.83;7.10;;;17.00;99.90;;;;;;4978102;28;20496;-71
2021/07/19 04:33:29;;;;;;;9.33;7.90;;;17.00;99.90;;;;;;4978046;28;20439;-71
2021/07/19 04:35:55;;;;;;;8.93;7.07;;;17.00;99.90;;;;;;4978065;28;20642;-71
2021/07/19 04:38:22;;;;;;;8.97;7.97;;;17.00;99.90;;;;;;4978370;28;20643;-71
2021/07/19 04:40:56;;;;;;;11.13;8.20;;;17.00;99.90;;;;;;4981950;28;20169;-71
2021/07/19 04:43:23;;;;;;;11.97;8.00;;;17.10;99.90;;;;;;4987408;28;20440;-71
2021/07/19 04:45:50;;;;;;;10.43;6.57;;;17.10;99.90;;;;;;4987609;28;20470;-71
2021/07/19 04:48:17;;;;;;;8.50;7.10;;;17.20;99.90;;;;;;4976681;28;20500;-71
2021/07/19 04:50:44;;;;;;;14.83;8.23;;;17.10;99.90;;;;;;4976483;28;20862;-71
2021/07/19 04:53:11;;;;;;;9.10;7.57;;;17.20;99.90;;;;;;4978041;28;20432;-71
2021/07/19 04:55:45;;;;;;;13.27;7.80;;;17.10;99.90;;;;;;4977651;28;20447;-71
2021/07/19 04:58:14;;;;;;;10.50;7.90;;;17.10;99.90;;;;;;4983975;28;20411;-71
2021/07/19 05:00:39;;;;;;;10.70;7.83;;;16.90;99.90;;;;;;4986518;28;20435;-71
2021/07/19 05:03:08;;;;;;;11.27;7.80;;;16.90;99.90;;;;;;4985505;28;20519;-71
2021/07/19 05:05:35;;;;;;;11.87;8.20;;;16.90;99.90;;;;;;4976861;28;20351;-71
2021/07/19 05:08:01;;;;;;;9.43;6.90;;;16.90;99.90;;;;;;4976984;28;20416;-71
2021/07/19 05:10:28;;;;;;;14.90;8.10;;;17.10;99.90;;;;;;4976999;28;20424;-71
2021/07/19 05:12:55;;;;;;;11.60;7.87;;;17.30;99.90;;;;;;4976832;28;20472;-71
2021/07/19 05:15:21;;;;;;;10.40;7.60;;;17.50;99.90;;;;;;4976961;28;20408;-71
2021/07/19 05:17:48;;;;;;;11.60;8.20;;;17.70;99.90;;;;;;4975302;28;20447;-71
2021/07/19 05:20:19;;;;;;;8.53;6.10;;;17.90;99.90;;;;;;4976387;28;20428;-71
2021/07/19 05:22:46;;;;;;;10.20;8.13;;;18.10;99.90;;;;;;4976836;28;20786;-71
2021/07/19 05:25:14;;;;;;;9.50;7.00;;;18.30;99.90;;;;;;4976909;28;20451;-71
2021/07/19 05:27:57;;;;;;;9.60;8.13;;;18.50;99.90;;;;;;4976264;28;20463;-71
2021/07/19 05:30:23;;;;;;;11.83;7.93;;;18.60;99.90;;;;;;4964477;28;20941;-71
2021/07/19 05:32:50;;;;;;;11.30;7.50;;;18.70;99.90;;;;;;4975289;28;20475;-71
2021/07/19 05:35:16;;;;;;;9.17;8.03;;;18.80;99.90;;;;;;4976630;28;20165;-71
2021/07/19 05:37:42;;;;;;;10.50;7.97;;;18.80;99.90;;;;;;4991948;28;20420;-71
2021/07/19 05:40:08;;;;;;;11.60;7.27;;;18.80;99.90;;;;;;4976825;28;20912;-71
2021/07/19 05:42:34;;;;;;;7.90;7.00;;;18.80;99.90;;;;;;4976593;28;20258;-71
2021/07/19 05:44:59;;;;;;;10.57;7.80;;;18.90;99.90;;;;;;4976270;28;20431;-71
2021/07/19 05:47:25;;;;;;;11.57;7.37;;;19.00;99.90;;;;;;4976164;28;20177;-71
2021/07/19 05:49:50;;;;;;;8.90;7.20;;;19.20;99.90;;;;;;4976119;28;20173;-71
2021/07/19 05:52:16;;;;;;;9.13;7.70;;;19.30;99.90;;;;;;4976109;28;20213;-71
2021/07/19 05:54:41;;;;;;;12.00;7.83;;;19.30;99.90;;;;;;4974803;28;20196;-71
2021/07/19 05:57:08;;;;;;;9.53;8.00;;;19.20;99.90;;;;;;4976334;28;20227;-71
2021/07/19 05:59:34;;;;;;;9.60;6.80;;;19.20;99.90;;;;;;4976702;28;20173;-71
2021/07/19 06:01:59;;;;;;;10.77;7.80;;;19.30;99.90;;;;;;4975734;28;20436;-71
2021/07/19 06:04:25;;;;;;;9.33;7.27;;;19.30;99.90;;;;;;4987141;28;20202;-71
2021/07/19 06:06:50;;;;;;;12.40;8.20;;;19.40;99.90;;;;;;5014818;28;20659;-71
2021/07/19 06:09:16;;;;;;;12.77;9.20;;;19.20;99.90;;;;;;5005060;28;20230;-70
2021/07/19 06:11:41;;;;;;;8.70;7.30;;;18.90;99.90;;;;;;4994448;28;20219;-71
2021/07/19 06:14:07;;;;;;;7.63;6.80;;;18.80;99.90;;;;;;4985860;28;20204;-70
2021/07/19 06:16:32;;;;;;;11.63;8.57;;;19.00;99.90;;;;;;4993990;28;20183;-70
2021/07/19 06:18:58;;;;;;;7.60;6.80;;;19.10;99.90;;;;;;4995607;28;20176;-71
2021/07/19 06:21:23;;;;;;;8.90;7.90;;;19.20;99.90;;;;;;4993909;28;20381;-70
2021/07/19 06:23:49;;;;;;;8.07;7.23;;;19.30;99.90;;;;;;4993412;28;20669;-70
2021/07/19 06:26:14;;;;;;;7.97;7.00;;;19.40;99.90;;;;;;4994218;28;20215;-71
2021/07/19 06:28:40;;;;;;;9.47;7.50;;;19.60;99.90;;;;;;4993834;28;20616;-71
2021/07/19 06:31:06;;;;;;;9.83;7.30;;;19.60;99.90;;;;;;4995137;28;20582;-72
2021/07/19 06:33:31;;;;;;;9.50;7.80;;;19.80;99.90;;;;;;4993995;28;20286;-70
2021/07/19 06:35:57;;;;;;;9.83;7.73;;;19.90;99.90;;;;;;4995016;28;20214;-71
2021/07/19 06:38:22;;;;;;;9.37;8.07;;;19.90;99.90;;;;;;4994813;28;20184;-72
2021/07/19 06:40:48;;;;;;;9.20;7.60;;;20.00;99.90;;;;;;4995121;28;20610;-70
2021/07/19 06:43:13;;;;;;;8.93;7.73;;;20.10;99.90;;;;;;4995038;28;20200;-71
2021/07/19 06:45:39;;;;;;;8.20;7.40;;;20.10;99.90;;;;;;4994538;28;20167;-73
2021/07/19 06:48:05;;;;;;;11.10;8.60;;;20.10;99.90;;;;;;4994503;28;20531;-72
2021/07/19 06:50:31;;;;;;;11.00;8.53;;;20.00;99.90;;;;;;4993958;28;20184;-72
2021/07/19 06:52:56;;;;;;;10.17;8.50;;;19.90;99.90;;;;;;4994841;28;20466;-72
2021/07/19 06:55:22;;;;;;;11.73;8.90;;;19.80;99.90;;;;;;4994711;28;20222;-71
2021/07/19 06:57:47;;;;;;;9.93;8.07;;;19.90;99.90;;;;;;4994752;28;20196;-72
2021/07/19 07:00:13;;;;;;;10.30;8.20;;;19.90;99.90;;;;;;4994376;28;20199;-71
2021/07/19 07:02:39;;;;;;;11.27;8.10;;;19.90;99.90;;;;;;4994973;28;20246;-71
2021/07/19 07:05:05;;;;;;;12.87;9.03;;;19.90;99.90;;;;;;4984036;28;20444;-72
2021/07/19 07:07:31;;;;;;;14.80;9.00;;;20.10;99.90;;;;;;4975327;28;20181;-71
2021/07/19 07:09:56;;;;;;;14.07;9.53;;;20.20;99.90;;;;;;4975992;28;20423;-72
2021/07/19 07:12:22;;;;;;;11.83;7.77;;;20.00;99.90;;;;;;4975609;28;20226;-73
2021/07/19 07:14:48;;;;;;;10.57;8.30;;;19.60;99.90;;;;;;4975561;28;20519;-73
2021/07/19 07:17:15;;;;;;;12.53;9.27;;;19.40;99.90;;;;;;4973958;28;20416;-72
2021/07/19 07:19:40;;;;;;;10.90;8.90;;;19.40;99.90;;;;;;4975134;28;20409;-72
2021/07/19 07:22:06;;;;;;;10.63;8.60;;;19.40;99.90;;;;;;4976091;28;20404;-72
2021/07/19 07:24:31;;;;;;;9.73;7.80;;;19.40;99.90;;;;;;4974512;28;20205;-71
2021/07/19 07:26:57;;;;;;;11.53;8.57;;;19.60;99.90;;;;;;4974928;28;20188;-73
2021/07/19 07:29:22;;;;;;;9.43;7.87;;;19.80;99.90;;;;;;4975320;28;20750;-72
2021/07/19 07:31:48;;;;;;;8.70;7.00;;;19.90;99.90;;;;;;4974819;28;20262;-72
2021/07/19 07:34:13;;;;;;;7.80;7.00;;;20.20;99.90;;;;;;4975036;28;20640;-72
2021/07/19 07:36:39;;;;;;;11.10;8.00;;;20.40;99.90;;;;;;4957752;28;20179;-73
2021/07/19 07:39:05;;;;;;;9.43;8.37;;;20.50;99.90;;;;;;4974831;28;20188;-73
2021/07/19 07:41:31;;;;;;;20.20;11.30;;;20.60;99.90;;;;;;4976271;28;20393;-73
2021/07/19 07:43:58;;;;;;;12.37;8.97;;;20.50;99.90;;;;;;4973927;28;20526;-73
2021/07/19 07:46:24;;;;;;;15.50;8.43;;;20.40;99.90;;;;;;4974610;28;20691;-73
2021/07/19 07:48:51;;;;;;;11.87;8.50;;;20.50;99.90;;;;;;4973675;28;20432;-73
2021/07/19 07:51:16;;;;;;;11.50;9.10;;;20.60;99.90;;;;;;4974155;28;20952;-73
2021/07/19 07:53:42;;;;;;;13.23;9.90;;;20.80;99.90;;;;;;4978009;28;20468;-73
2021/07/19 07:56:07;;;;;;;11.37;10.10;;;20.70;99.90;;;;;;4979209;28;20177;-73
2021/07/19 07:58:33;;;;;;;12.80;10.17;;;20.50;99.90;;;;;;4961214;28;20200;-74
2021/07/19 08:00:58;;;;;;;15.87;12.67;;;20.40;99.90;;;;;;4979263;28;20173;-73
2021/07/19 08:03:24;;;;;;;16.47;11.97;;;20.00;99.90;;;;;;4979471;28;20224;-74
2021/07/19 08:05:50;;;;;;;16.90;12.50;;;19.80;99.90;;;;;;4979431;28;20205;-72
2021/07/19 08:08:15;;;;;;;18.30;12.93;;;19.90;99.90;;;;;;4979194;28;20177;-72
2021/07/19 08:10:41;;;;;;;15.30;12.57;;;20.00;99.90;;;;;;4980028;28;20259;-71
2021/07/19 08:13:07;;;;;;;16.73;13.93;;;20.00;99.90;;;;;;4990431;28;20212;-71
2021/07/19 08:15:34;;;;;;;13.73;12.03;;;19.80;99.90;;;;;;4993077;28;20453;-72
2021/07/19 08:18:01;;;;;;;16.70;13.10;;;19.70;99.90;;;;;;4989560;28;20432;-73
2021/07/19 08:20:26;;;;;;;15.63;13.03;;;19.70;99.90;;;;;;4978792;28;20411;-72
2021/07/19 08:22:52;;;;;;;16.80;13.03;;;19.70;99.90;;;;;;4978430;28;20510;-74
2021/07/19 08:25:18;;;;;;;16.13;12.87;;;19.80;99.90;;;;;;4978964;28;20200;-73
2021/07/19 08:27:45;;;;;;;19.10;13.20;;;19.70;99.90;;;;;;4978165;28;20181;-74
2021/07/19 08:30:12;;;;;;;16.47;12.67;;;19.50;99.90;;;;;;4979577;28;20832;-73
2021/07/19 08:32:38;;;;;;;19.60;14.30;;;19.70;99.90;;;;;;4976653;28;20494;-72
2021/07/19 08:35:09;;;;;;;18.77;15.33;;;19.90;99.90;;;;;;4978306;28;20859;-72
2021/07/19 08:37:36;;;;;;;22.17;14.70;;;19.90;99.90;;;;;;4978251;28;20487;-72
2021/07/19 08:40:03;;;;;;;19.43;13.37;;;20.10;99.90;;;;;;4977709;28;20403;-73
2021/07/19 08:42:29;;;;;;;17.10;14.87;;;20.30;99.90;;;;;;4976793;28;20459;-71
2021/07/19 08:44:55;;;;;;;22.33;14.60;;;20.50;99.90;;;;;;4976591;28;20448;-72
2021/07/19 08:47:21;;;;;;;20.83;15.30;;;20.50;99.90;;;;;;4978009;28;20427;-72
2021/07/19 08:49:46;;;;;;;17.43;14.50;;;20.40;99.90;;;;;;4982514;28;20176;-73
2021/07/19 08:52:16;;;;;;;17.10;14.30;;;20.50;99.90;;;;;;4977867;28;20219;-73
2021/07/19 08:54:47;;;;;;;18.47;13.57;;;20.50;99.90;;;;;;4980348;28;20684;-72
2021/07/19 08:57:13;;;;;;;18.73;14.20;;;20.60;99.90;;;;;;4977201;28;20894;-73
2021/07/19 08:59:40;;;;;;;22.37;13.30;;;20.40;99.90;;;;;;4977388;28;20428;-73
2021/07/19 09:02:06;;;;;;;17.30;12.67;;;20.30;99.90;;;;;;4977413;28;20501;-73
2021/07/19 09:04:32;;;;;;;16.03;12.80;;;20.40;99.90;;;;;;4958673;28;20527;-73
2021/07/19 09:06:58;;;;;;;16.63;12.97;;;20.50;99.90;;;;;;4977092;28;20982;-72
2021/07/19 09:09:28;;;;;;;20.23;14.00;;;20.60;99.90;;;;;;4975955;28;20426;-71
2021/07/19 09:11:55;;;;;;;17.67;12.27;;;20.70;99.90;;;;;;4976651;28;20197;-72
2021/07/19 09:14:20;;;;;;;16.30;12.33;;;20.90;99.90;;;;;;4976663;28;20409;-72
2021/07/19 09:16:48;;;;;;;16.37;13.80;;;21.00;99.90;;;;;;4976763;28;20430;-72
2021/07/19 09:19:16;;;;;;;19.40;13.67;;;20.70;99.90;;;;;;4976760;28;20240;-73
2021/07/19 09:21:44;;;;;;;18.20;12.93;;;20.40;99.90;;;;;;4976907;28;20770;-72
2021/07/19 09:24:12;;;;;;;19.13;13.47;;;20.10;99.90;;;;;;4976674;28;20917;-72
2021/07/19 09:26:40;;;;;;;15.90;12.93;;;19.90;99.90;;;;;;4976378;28;20922;-73
2021/07/19 09:29:07;;;;;;;16.50;13.03;;;19.80;99.90;;;;;;4976733;28;20917;-73
2021/07/19 09:31:41;;;;;;;16.80;13.97;;;19.90;99.90;;;;;;4976993;28;20965;-71
2021/07/19 09:34:18;;;;;;;15.80;13.77;;;19.90;99.90;;;;;;4976533;28;20471;-72
2021/07/19 09:36:58;;;;;;;13.43;11.43;;;20.10;99.90;;;;;;4976860;28;20396;-72
2021/07/19 09:39:29;;;;;;;15.00;11.80;;;20.20;99.90;;;;;;4976617;28;20404;-73
2021/07/19 09:42:15;;;;;;;15.27;13.23;;;20.10;99.90;;;;;;4976799;28;20428;-72
2021/07/19 09:44:46;;;;;;;15.70;13.10;;;20.00;99.90;;;;;;4976438;28;20392;-72
2021/07/19 09:47:12;;;;;;;14.73;12.50;;;20.00;99.90;;;;;;4976165;28;20408;-71
2021/07/19 09:49:39;;;;;;;16.23;13.40;;;19.90;99.90;;;;;;4976440;28;20766;-72
2021/07/19 09:52:09;;;;;;;16.00;12.93;;;19.70;99.90;;;;;;4975996;28;20228;-72
2021/07/19 09:54:46;;;;;;;17.20;13.10;;;19.70;99.90;;;;;;4976226;28;20412;-73
2021/07/19 09:57:12;;;;;;;16.43;13.17;;;19.80;99.90;;;;;;4976673;28;20416;-72
2021/07/19 09:59:51;;;;;;;14.83;12.63;;;19.90;99.90;;;;;;4976297;28;20499;-72
2021/07/19 10:02:50;;;;;;;14.10;12.60;;;20.10;99.90;;;;;;4975286;28;20444;-72
2021/07/19 10:05:28;;;;;;;15.37;12.10;;;20.30;99.90;;;;;;4916872;29;20507;-72
2021/07/19 10:07:55;;;;;;;15.20;12.63;;;20.50;99.90;;;;;;4913893;29;20447;-72
2021/07/19 10:10:41;;;;;;;15.63;12.80;;;20.70;99.90;;;;;;4915476;29;20527;-71
2021/07/19 10:13:09;;;;;;;19.63;13.17;;;21.00;99.90;;;;;;4914885;29;20474;-72
2021/07/19 10:15:39;;;;;;;13.97;12.10;;;21.10;99.90;;;;;;4914895;29;20430;-71
2021/07/19 10:18:11;;;;;;;15.30;12.03;;;21.30;99.90;;;;;;4914974;29;20442;-71
2021/07/19 10:20:38;;;;;;;16.67;13.80;;;21.30;99.90;;;;;;4914628;29;21072;-72
2021/07/19 10:23:08;;;;;;;14.50;12.80;;;21.20;99.90;;;;;;4914872;29;20514;-73
2021/07/19 10:25:37;;;;;;;14.97;11.97;;;21.30;99.90;;;;;;4914989;29;20849;-72
2021/07/19 10:28:03;;;;;;;15.03;11.60;;;21.00;99.90;;;;;;4914287;29;20948;-71
2021/07/19 10:30:29;;;;;;;13.13;10.43;;;20.80;99.90;;;;;;4914847;29;20427;-72
2021/07/19 10:32:55;;;;;;;14.37;10.93;;;20.80;99.90;;;;;;4915131;29;20533;-72
2021/07/19 10:35:21;;;;;;;13.00;11.10;;;20.90;99.90;;;;;;4915552;29;20526;-70
2021/07/19 10:38:08;;;;;;;12.37;10.50;;;21.00;99.90;;;;;;4915131;29;20534;-71
2021/07/19 10:40:36;;;;;;;12.87;10.57;;;21.20;99.90;;;;;;4938586;28;20192;-72
2021/07/19 10:43:10;;;;;;;11.10;9.90;;;21.50;99.90;;;;;;4974078;28;20478;-73
2021/07/19 10:45:53;;;;;;;13.03;11.67;;;21.60;99.90;;;;;;4973240;28;20456;-72
2021/07/19 10:48:30;;;;;;;16.00;11.50;;;21.90;99.80;;;;;;4973937;28;20431;-72
2021/07/19 10:51:01;;;;;;;14.27;11.93;;;22.00;99.50;;;;;;4974177;28;20419;-72
2021/07/19 10:53:28;;;;;;;13.27;11.77;;;21.80;99.20;;;;;;4973963;28;21181;-72
2021/07/19 10:56:01;;;;;;;13.20;10.93;;;21.50;99.30;;;;;;4973875;28;20415;-72
2021/07/19 10:58:40;;;;;;;13.90;10.83;;;21.20;99.90;;;;;;4972985;28;20937;-72
2021/07/19 11:01:17;;;;;;;13.70;11.47;;;21.10;99.90;;;;;;4974267;28;20392;-72
2021/07/19 11:03:42;;;;;;;13.33;11.03;;;21.20;99.90;;;;;;4973883;28;20428;-72
2021/07/19 11:06:10;;;;;;;12.00;9.93;;;21.20;99.90;;;;;;4974560;28;20420;-72
2021/07/19 11:08:46;;;;;;;12.23;10.40;;;21.20;99.90;;;;;;4956721;28;20631;-72
2021/07/19 11:11:12;;;;;;;12.53;11.03;;;21.10;99.90;;;;;;4973722;28;20459;-72
2021/07/19 11:13:38;;;;;;;12.77;11.10;;;21.10;99.90;;;;;;4973787;28;20937;-72
2021/07/19 11:16:14;;;;;;;10.80;9.63;;;21.20;99.90;;;;;;4974006;28;20177;-72
2021/07/19 11:18:40;;;;;;;17.10;11.17;;;21.10;99.90;;;;;;4974152;28;20219;-73
2021/07/19 11:21:06;;;;;;;12.80;10.70;;;21.00;99.90;;;;;;4973852;28;20408;-73
2021/07/19 11:23:35;;;;;;;14.57;11.17;;;20.90;99.90;;;;;;4957210;28;20263;-72
2021/07/19 11:26:02;;;;;;;14.27;10.73;;;21.10;99.90;;;;;;4973620;28;20412;-71
2021/07/19 11:28:31;;;;;;;12.37;10.60;;;21.30;99.90;;;;;;4973915;28;20424;-72
2021/07/19 11:31:10;;;;;;;16.30;11.47;;;21.50;99.90;;;;;;4978705;28;20435;-72
2021/07/19 11:33:41;;;;;;;13.40;10.53;;;21.60;99.90;;;;;;4986663;28;20454;-73
2021/07/19 11:36:26;;;;;;;11.07;9.87;;;21.60;99.80;;;;;;4978061;28;20392;-73
2021/07/19 11:38:54;;;;;;;11.83;9.90;;;21.70;99.80;;;;;;4984545;28;20499;-71
2021/07/19 11:41:25;;;;;;;12.93;10.20;;;21.80;99.60;;;;;;4976410;28;20409;-71
2021/07/19 11:43:54;;;;;;;15.47;10.33;;;21.50;99.70;;;;;;4957255;28;20454;-72
2021/07/19 11:46:31;;;;;;;11.77;10.53;;;21.40;99.90;;;;;;4974917;28;20420;-72
2021/07/19 11:49:03;;;;;;;13.17;10.83;;;21.40;99.90;;;;;;4974311;28;20400;-72
2021/07/19 11:51:30;;;;;;;12.03;10.73;;;21.20;99.90;;;;;;4973648;28;20444;-73
2021/07/19 11:53:57;;;;;;;12.80;11.20;;;21.00;99.90;;;;;;4974698;28;20435;-72
2021/07/19 11:56:23;;;;;;;12.63;10.20;;;21.00;99.90;;;;;;4974564;28;20800;-72
2021/07/19 11:58:59;;;;;;;18.87;10.43;;;21.00;99.90;;;;;;4957417;28;20788;-72
2021/07/19 12:01:27;;;;;;;13.87;10.27;;;21.10;99.90;;;;;;4974079;28;20419;-72
2021/07/19 12:03:54;;;;;;;12.20;10.10;;;21.50;99.90;;;;;;4974562;28;20518;-72
2021/07/19 12:06:20;;;;;;;12.70;11.25;;;21.80;99.90;;;;;;4973204;28;20429;-72
2021/07/19 12:09:02;;;;;;;13.57;11.23;;;21.90;99.90;;;;;;4974008;28;20169;-71
2021/07/19 12:11:30;;;;;;;16.57;11.03;;;22.10;99.50;;;;;;4976204;28;20601;-71
2021/07/19 12:14:09;;;;;;;16.03;10.63;;;22.20;99.20;;;;;;4973341;28;20428;-72
2021/07/19 12:16:38;;;;;;;12.60;10.20;;;22.40;99.00;;;;;;4973478;28;20400;-72
2021/07/19 12:19:06;;;;;;;14.10;11.87;;;22.50;98.60;;;;;;4973285;28;20447;-73
2021/07/19 12:21:38;;;;;;;13.80;11.20;;;22.40;98.80;;;;;;4973377;28;20458;-71
2021/07/19 12:24:05;;;;;;;15.10;11.60;;;22.60;98.70;;;;;;4973205;28;20435;-71
2021/07/19 12:26:30;;;;;;;14.80;10.20;;;22.30;98.40;;;;;;4972532;28;20894;-71
2021/07/19 12:28:58;;;;;;;13.97;10.93;;;22.00;98.90;;;;;;4973747;28;20419;-71
2021/07/19 12:31:33;;;;;;;13.53;11.03;;;21.90;99.00;;;;;;4973460;28;20200;-72
2021/07/19 12:34:03;;;;;;;15.87;12.07;;;21.70;99.40;;;;;;4973158;28;20443;-71
2021/07/19 12:36:29;;;;;;;12.43;11.10;;;21.50;99.50;;;;;;4972917;28;20412;-71
2021/07/19 12:38:55;;;;;;;12.80;11.37;;;21.50;99.90;;;;;;4975442;28;20462;-71
2021/07/19 12:41:21;;;;;;;14.17;12.27;;;21.60;99.90;;;;;;4976400;28;20172;-73
2021/07/19 12:43:47;;;;;;;16.33;13.10;;;21.50;99.70;;;;;;4976526;28;21044;-72